sensor_id;sensor_type;location;lat;lon;timestamp;P1;durP1;ratioP1;P2;durP2;ratioP2
29700;SDS011;57917;51.380;-0.176;2022-09-09T00:26:32;12.60;;;2.15;;
29700;SDS011;57917;51.380;-0.176;2022-09-09T00:32:19;17.90;;;2.03;;
29700;SDS011;57917;51.380;-0.176;2022-09-09T00:38:38;19.73;;;3.20;;
29700;SDS011;57917;51.380;-0.176;2022-09-09T01:06:37;13.77;;;3.25;;
29700;SDS011;57917;51.380;-0.176;2022-09-09T01:19:01;10.93;;;1.75;;
29700;SDS011;57917;51.380;-0.176;2022-09-09T01:25:27;6.57;;;2.05;;
29700;SDS011;57917;51.380;-0.176;2022-09-09T01:37:49;5.70;;;1.60;;
29700;SDS011;57917;51.380;-0.176;2022-09-09T01:49:28;7.90;;;1.70;;
29700;SDS011;57917;51.380;-0.176;2022-09-09T01:55:27;10.25;;;1.60;;
29700;SDS011;57917;51.380;-0.176;2022-09-09T02:16:37;8.65;;;2.17;;
29700;SDS011;57917;51.380;-0.176;2022-09-09T02:22:57;16.17;;;2.17;;
29700;SDS011;57917;51.380;-0.176;2022-09-09T02:28:49;6.88;;;1.40;;
29700;SDS011;57917;51.380;-0.176;2022-09-09T02:34:44;5.05;;;1.60;;
29700;SDS011;57917;51.380;-0.176;2022-09-09T02:40:46;9.18;;;1.58;;
29700;SDS011;57917;51.380;-0.176;2022-09-09T02:59:03;13.38;;;1.85;;
29700;SDS011;57917;51.380;-0.176;2022-09-09T03:04:54;8.60;;;1.95;;
29700;SDS011;57917;51.380;-0.176;2022-09-09T03:10:44;18.25;;;2.22;;
29700;SDS011;57917;51.380;-0.176;2022-09-09T03:16:33;9.30;;;1.77;;
29700;SDS011;57917;51.380;-0.176;2022-09-09T03:22:27;13.10;;;2.30;;
29700;SDS011;57917;51.380;-0.176;2022-09-09T03:28:18;8.32;;;1.92;;
29700;SDS011;57917;51.380;-0.176;2022-09-09T03:34:05;9.23;;;2.15;;
29700;SDS011;57917;51.380;-0.176;2022-09-09T03:39:54;11.32;;;1.73;;
29700;SDS011;57917;51.380;-0.176;2022-09-09T03:46:15;10.43;;;1.75;;
29700;SDS011;57917;51.380;-0.176;2022-09-09T03:52:42;12.52;;;2.03;;
29700;SDS011;57917;51.380;-0.176;2022-09-09T03:58:46;6.85;;;1.80;;
29700;SDS011;57917;51.380;-0.176;2022-09-09T04:10:56;8.82;;;2.17;;
29700;SDS011;57917;51.380;-0.176;2022-09-09T04:16:55;11.20;;;3.00;;
29700;SDS011;57917;51.380;-0.176;2022-09-09T04:22:48;5.57;;;2.20;;
29700;SDS011;57917;51.380;-0.176;2022-09-09T04:28:55;17.85;;;2.63;;
29700;SDS011;57917;51.380;-0.176;2022-09-09T04:34:42;10.90;;;2.28;;
29700;SDS011;57917;51.380;-0.176;2022-09-09T04:40:37;10.85;;;2.58;;
29700;SDS011;57917;51.380;-0.176;2022-09-09T04:46:27;5.68;;;2.03;;
29700;SDS011;57917;51.380;-0.176;2022-09-09T04:52:16;11.73;;;2.90;;
29700;SDS011;57917;51.380;-0.176;2022-09-09T04:58:10;14.45;;;2.65;;
29700;SDS011;57917;51.380;-0.176;2022-09-09T05:04:11;16.02;;;2.85;;
29700;SDS011;57917;51.380;-0.176;2022-09-09T05:10:22;5.55;;;2.72;;
29700;SDS011;57917;51.380;-0.176;2022-09-09T05:24:06;9.95;;;2.53;;
29700;SDS011;57917;51.380;-0.176;2022-09-09T05:29:59;7.22;;;2.50;;
29700;SDS011;57917;51.380;-0.176;2022-09-09T05:36:28;15.68;;;3.20;;
29700;SDS011;57917;51.380;-0.176;2022-09-09T05:42:45;15.35;;;3.08;;
29700;SDS011;57917;51.380;-0.176;2022-09-09T05:48:35;10.30;;;2.85;;
29700;SDS011;57917;51.380;-0.176;2022-09-09T05:54:28;11.40;;;3.35;;
29700;SDS011;57917;51.380;-0.176;2022-09-09T06:00:19;12.05;;;3.30;;
29700;SDS011;57917;51.380;-0.176;2022-09-09T06:06:10;6.45;;;3.25;;
29700;SDS011;57917;51.380;-0.176;2022-09-09T06:12:45;11.25;;;3.08;;
29700;SDS011;57917;51.380;-0.176;2022-09-09T06:18:41;4.60;;;2.75;;
29700;SDS011;57917;51.380;-0.176;2022-09-09T06:24:44;8.93;;;2.97;;
29700;SDS011;57917;51.380;-0.176;2022-09-09T06:30:44;14.85;;;2.78;;
29700;SDS011;57917;51.380;-0.176;2022-09-09T06:37:08;7.25;;;2.90;;
29700;SDS011;57917;51.380;-0.176;2022-09-09T06:43:04;10.82;;;2.65;;
29700;SDS011;57917;51.380;-0.176;2022-09-09T06:48:59;12.77;;;3.85;;
29700;SDS011;57917;51.380;-0.176;2022-09-09T06:54:56;18.30;;;3.42;;
29700;SDS011;57917;51.380;-0.176;2022-09-09T07:01:06;7.88;;;3.63;;
29700;SDS011;57917;51.380;-0.176;2022-09-09T07:21:08;8.85;;;2.90;;
29700;SDS011;57917;51.380;-0.176;2022-09-09T08:50:55;5.30;;;2.83;;
29700;SDS011;57917;51.380;-0.176;2022-09-09T08:56:56;5.10;;;2.90;;
29700;SDS011;57917;51.380;-0.176;2022-09-09T10:05:03;16.40;;;5.95;;
29700;SDS011;57917;51.380;-0.176;2022-09-09T10:40:24;3.78;;;2.50;;
29700;SDS011;57917;51.380;-0.176;2022-09-09T10:58:49;7.18;;;2.42;;
29700;SDS011;57917;51.380;-0.176;2022-09-09T11:41:23;5.25;;;1.83;;
29700;SDS011;57917;51.380;-0.176;2022-09-09T12:01:00;4.30;;;1.90;;
29700;SDS011;57917;51.380;-0.176;2022-09-09T12:07:36;3.50;;;1.60;;
29700;SDS011;57917;51.380;-0.176;2022-09-09T12:13:38;6.13;;;1.88;;
29700;SDS011;57917;51.380;-0.176;2022-09-09T12:27:50;4.55;;;1.80;;
29700;SDS011;57917;51.380;-0.176;2022-09-09T12:34:30;13.48;;;2.53;;
29700;SDS011;57917;51.380;-0.176;2022-09-09T12:41:24;3.50;;;1.40;;
29700;SDS011;57917;51.380;-0.176;2022-09-09T12:48:18;5.30;;;1.95;;
29700;SDS011;57917;51.380;-0.176;2022-09-09T14:41:28;2.53;;;0.93;;
29700;SDS011;57917;51.380;-0.176;2022-09-09T14:56:34;0.75;;;0.57;;
29700;SDS011;57917;51.380;-0.176;2022-09-09T15:08:46;1.90;;;0.70;;
29700;SDS011;57917;51.380;-0.176;2022-09-09T15:14:39;1.35;;;0.60;;
29700;SDS011;57917;51.380;-0.176;2022-09-09T15:27:23;4.20;;;0.80;;
29700;SDS011;57917;51.380;-0.176;2022-09-09T15:33:11;4.93;;;0.73;;
29700;SDS011;57917;51.380;-0.176;2022-09-09T15:54:14;1.10;;;0.63;;
29700;SDS011;57917;51.380;-0.176;2022-09-09T16:08:57;2.03;;;0.65;;
29700;SDS011;57917;51.380;-0.176;2022-09-09T16:15:13;3.58;;;0.50;;
29700;SDS011;57917;51.380;-0.176;2022-09-09T16:27:55;2.72;;;1.23;;
29700;SDS011;57917;51.380;-0.176;2022-09-09T16:35:21;5.45;;;0.90;;
29700;SDS011;57917;51.380;-0.176;2022-09-09T16:48:51;1.15;;;0.50;;
29700;SDS011;57917;51.380;-0.176;2022-09-09T16:54:47;1.75;;;0.65;;
29700;SDS011;57917;51.380;-0.176;2022-09-09T17:08:42;1.93;;;0.90;;
29700;SDS011;57917;51.380;-0.176;2022-09-09T17:15:21;1.73;;;0.70;;
29700;SDS011;57917;51.380;-0.176;2022-09-09T17:21:45;0.77;;;0.33;;
29700;SDS011;57917;51.380;-0.176;2022-09-09T17:28:07;0.65;;;0.60;;
29700;SDS011;57917;51.380;-0.176;2022-09-09T17:33:54;1.88;;;0.80;;
29700;SDS011;57917;51.380;-0.176;2022-09-09T17:39:50;4.00;;;1.35;;
29700;SDS011;57917;51.380;-0.176;2022-09-09T17:45:38;5.57;;;1.20;;
29700;SDS011;57917;51.380;-0.176;2022-09-09T17:51:29;3.97;;;1.23;;
29700;SDS011;57917;51.380;-0.176;2022-09-09T18:04:21;1.90;;;1.67;;
29700;SDS011;57917;51.380;-0.176;2022-09-09T18:10:18;6.20;;;2.30;;
29700;SDS011;57917;51.380;-0.176;2022-09-09T18:16:10;1.98;;;1.40;;
29700;SDS011;57917;51.380;-0.176;2022-09-09T18:21:57;3.70;;;1.52;;
29700;SDS011;57917;51.380;-0.176;2022-09-09T18:27:48;4.38;;;1.35;;
29700;SDS011;57917;51.380;-0.176;2022-09-09T18:39:30;3.72;;;2.03;;
29700;SDS011;57917;51.380;-0.176;2022-09-09T18:45:18;6.43;;;1.70;;
29700;SDS011;57917;51.380;-0.176;2022-09-09T18:51:12;4.60;;;1.90;;
29700;SDS011;57917;51.380;-0.176;2022-09-09T18:57:33;4.97;;;1.98;;
29700;SDS011;57917;51.380;-0.176;2022-09-09T19:03:30;4.93;;;1.50;;
29700;SDS011;57917;51.380;-0.176;2022-09-09T19:09:23;4.05;;;2.00;;
29700;SDS011;57917;51.380;-0.176;2022-09-09T19:15:11;3.78;;;1.88;;
29700;SDS011;57917;51.380;-0.176;2022-09-09T19:21:17;4.35;;;2.55;;
29700;SDS011;57917;51.380;-0.176;2022-09-09T19:27:08;6.55;;;2.65;;
29700;SDS011;57917;51.380;-0.176;2022-09-09T19:32:55;3.40;;;1.73;;
29700;SDS011;57917;51.380;-0.176;2022-09-09T19:38:44;6.15;;;1.80;;
29700;SDS011;57917;51.380;-0.176;2022-09-09T19:44:32;5.13;;;2.03;;
29700;SDS011;57917;51.380;-0.176;2022-09-09T19:50:18;3.45;;;1.80;;
29700;SDS011;57917;51.380;-0.176;2022-09-09T19:56:09;3.65;;;1.92;;
29700;SDS011;57917;51.380;-0.176;2022-09-09T20:01:58;5.40;;;2.05;;
29700;SDS011;57917;51.380;-0.176;2022-09-09T20:07:45;3.42;;;1.90;;
29700;SDS011;57917;51.380;-0.176;2022-09-09T20:13:35;4.05;;;1.75;;
29700;SDS011;57917;51.380;-0.176;2022-09-09T20:19:24;3.88;;;2.08;;
29700;SDS011;57917;51.380;-0.176;2022-09-09T20:25:10;3.28;;;1.80;;
29700;SDS011;57917;51.380;-0.176;2022-09-09T20:31:08;2.38;;;1.52;;
29700;SDS011;57917;51.380;-0.176;2022-09-09T20:36:54;2.38;;;1.38;;
29700;SDS011;57917;51.380;-0.176;2022-09-09T20:42:44;5.07;;;1.80;;
29700;SDS011;57917;51.380;-0.176;2022-09-09T20:48:34;6.40;;;2.03;;
29700;SDS011;57917;51.380;-0.176;2022-09-09T20:54:24;5.55;;;2.63;;
29700;SDS011;57917;51.380;-0.176;2022-09-09T21:00:13;5.85;;;2.08;;
29700;SDS011;57917;51.380;-0.176;2022-09-09T21:06:01;11.23;;;2.13;;
29700;SDS011;57917;51.380;-0.176;2022-09-09T21:11:56;3.05;;;1.75;;
29700;SDS011;57917;51.380;-0.176;2022-09-09T21:17:43;3.38;;;2.40;;
29700;SDS011;57917;51.380;-0.176;2022-09-09T21:23:35;5.57;;;1.90;;
29700;SDS011;57917;51.380;-0.176;2022-09-09T21:29:26;5.53;;;1.85;;
29700;SDS011;57917;51.380;-0.176;2022-09-09T21:35:17;3.28;;;2.17;;
29700;SDS011;57917;51.380;-0.176;2022-09-09T21:41:20;3.42;;;2.30;;
29700;SDS011;57917;51.380;-0.176;2022-09-09T21:47:09;12.57;;;2.65;;
29700;SDS011;57917;51.380;-0.176;2022-09-09T21:52:58;8.60;;;2.20;;
29700;SDS011;57917;51.380;-0.176;2022-09-09T21:58:46;5.10;;;2.38;;
29700;SDS011;57917;51.380;-0.176;2022-09-09T22:04:41;3.70;;;2.20;;
29700;SDS011;57917;51.380;-0.176;2022-09-09T22:10:28;5.20;;;2.38;;
29700;SDS011;57917;51.380;-0.176;2022-09-09T22:16:23;4.32;;;2.45;;
29700;SDS011;57917;51.380;-0.176;2022-09-09T22:22:10;7.82;;;3.10;;
29700;SDS011;57917;51.380;-0.176;2022-09-09T22:27:58;5.90;;;2.92;;
29700;SDS011;57917;51.380;-0.176;2022-09-09T22:33:47;4.97;;;3.00;;
29700;SDS011;57917;51.380;-0.176;2022-09-09T22:39:34;7.95;;;3.33;;
29700;SDS011;57917;51.380;-0.176;2022-09-09T22:45:21;6.53;;;3.70;;
29700;SDS011;57917;51.380;-0.176;2022-09-09T22:51:12;6.18;;;3.60;;
29700;SDS011;57917;51.380;-0.176;2022-09-09T22:57:00;9.65;;;4.20;;
29700;SDS011;57917;51.380;-0.176;2022-09-09T23:02:46;10.60;;;3.95;;
29700;SDS011;57917;51.380;-0.176;2022-09-09T23:08:36;8.57;;;3.78;;
29700;SDS011;57917;51.380;-0.176;2022-09-09T23:14:26;8.18;;;3.80;;
29700;SDS011;57917;51.380;-0.176;2022-09-09T23:20:13;10.45;;;3.78;;
29700;SDS011;57917;51.380;-0.176;2022-09-09T23:26:00;9.25;;;3.78;;
29700;SDS011;57917;51.380;-0.176;2022-09-09T23:31:48;6.72;;;3.88;;
29700;SDS011;57917;51.380;-0.176;2022-09-09T23:37:35;6.25;;;3.65;;
29700;SDS011;57917;51.380;-0.176;2022-09-09T23:43:22;12.38;;;3.92;;
29700;SDS011;57917;51.380;-0.176;2022-09-09T23:49:10;11.20;;;3.40;;
29700;SDS011;57917;51.380;-0.176;2022-09-09T23:54:57;6.38;;;3.42;;
